sensor_id;sensor_type;location;lat;lon;timestamp;pressure;altitude;pressure_sealevel;temperature;humidity
83733;BME280;73710;49.968;8.338;2024-01-27T05:06:26;102601.75;;;1.02;100.00
83733;BME280;73710;49.968;8.338;2024-01-27T05:08:52;102606.72;;;0.92;100.00
83733;BME280;73710;49.968;8.338;2024-01-27T05:11:31;102615.16;;;0.83;100.00
83733;BME280;73710;49.968;8.338;2024-01-27T05:13:57;102616.50;;;0.66;100.00
83733;BME280;73710;49.968;8.338;2024-01-27T05:16:22;102605.56;;;0.40;100.00
83733;BME280;73710;49.968;8.338;2024-01-27T05:18:48;102610.41;;;0.27;100.00
83733;BME280;73710;49.968;8.338;2024-01-27T05:21:14;102607.44;;;0.12;100.00
83733;BME280;73710;49.968;8.338;2024-01-27T05:23:39;102619.19;;;-0.01;100.00
83733;BME280;73710;49.968;8.338;2024-01-27T05:26:08;102621.44;;;-0.15;100.00
83733;BME280;73710;49.968;8.338;2024-01-27T05:28:35;102624.72;;;-0.20;100.00
83733;BME280;73710;49.968;8.338;2024-01-27T05:31:00;102629.47;;;-0.37;100.00
83733;BME280;73710;49.968;8.338;2024-01-27T05:33:26;102634.41;;;-0.46;100.00
83733;BME280;73710;49.968;8.338;2024-01-27T05:35:51;102630.19;;;-0.42;100.00
83733;BME280;73710;49.968;8.338;2024-01-27T05:38:17;102632.56;;;-0.50;100.00
83733;BME280;73710;49.968;8.338;2024-01-27T05:40:42;102635.19;;;-0.48;100.00
83733;BME280;73710;49.968;8.338;2024-01-27T05:43:08;102648.53;;;-0.64;100.00
83733;BME280;73710;49.968;8.338;2024-01-27T05:45:33;102643.19;;;-0.70;100.00
83733;BME280;73710;49.968;8.338;2024-01-27T05:47:58;102635.63;;;-0.63;100.00
83733;BME280;73710;49.968;8.338;2024-01-27T05:50:24;102643.16;;;-0.72;100.00
83733;BME280;73710;49.968;8.338;2024-01-27T05:52:49;102643.69;;;-0.82;100.00
83733;BME280;73710;49.968;8.338;2024-01-27T05:55:14;102635.56;;;-0.96;100.00
83733;BME280;73710;49.968;8.338;2024-01-27T05:57:41;102638.59;;;-1.09;100.00
83733;BME280;73710;49.968;8.338;2024-01-27T06:00:07;102642.03;;;-1.10;100.00
83733;BME280;73710;49.968;8.338;2024-01-27T06:02:34;102642.78;;;-1.14;100.00
83733;BME280;73710;49.968;8.338;2024-01-27T06:05:01;102652.22;;;-1.14;100.00
83733;BME280;73710;49.968;8.338;2024-01-27T06:07:26;102658.06;;;-1.20;100.00
83733;BME280;73710;49.968;8.338;2024-01-27T06:09:52;102670.47;;;-1.08;100.00
83733;BME280;73710;49.968;8.338;2024-01-27T06:12:17;102660.66;;;-0.92;100.00
83733;BME280;73710;49.968;8.338;2024-01-27T06:14:42;102662.47;;;-0.88;100.00
83733;BME280;73710;49.968;8.338;2024-01-27T06:17:08;102678.66;;;-0.65;100.00
83733;BME280;73710;49.968;8.338;2024-01-27T06:19:33;102670.50;;;-0.49;100.00
83733;BME280;73710;49.968;8.338;2024-01-27T06:21:58;102679.78;;;-0.55;100.00
83733;BME280;73710;49.968;8.338;2024-01-27T06:24:24;102673.09;;;-0.78;100.00
83733;BME280;73710;49.968;8.338;2024-01-27T06:26:49;102673.16;;;-1.05;100.00
83733;BME280;73710;49.968;8.338;2024-01-27T06:29:14;102668.28;;;-1.23;100.00
83733;BME280;73710;49.968;8.338;2024-01-27T06:31:40;102661.94;;;-1.34;100.00
83733;BME280;73710;49.968;8.338;2024-01-27T06:34:05;102666.97;;;-1.38;100.00
83733;BME280;73710;49.968;8.338;2024-01-27T06:36:31;102679.09;;;-1.36;100.00
83733;BME280;73710;49.968;8.338;2024-01-27T06:38:57;102672.16;;;-1.37;100.00
83733;BME280;73710;49.968;8.338;2024-01-27T06:41:23;102678.91;;;-1.42;100.00
83733;BME280;73710;49.968;8.338;2024-01-27T06:43:48;102664.97;;;-1.47;100.00
83733;BME280;73710;49.968;8.338;2024-01-27T06:46:13;102664.72;;;-1.54;100.00
83733;BME280;73710;49.968;8.338;2024-01-27T06:48:39;102667.31;;;-1.54;100.00
83733;BME280;73710;49.968;8.338;2024-01-27T06:51:04;102666.06;;;-1.66;100.00
83733;BME280;73710;49.968;8.338;2024-01-27T06:53:30;102669.91;;;-1.80;100.00
83733;BME280;73710;49.968;8.338;2024-01-27T06:55:55;102666.34;;;-1.83;100.00
83733;BME280;73710;49.968;8.338;2024-01-27T06:58:20;102673.81;;;-1.91;100.00
83733;BME280;73710;49.968;8.338;2024-01-27T07:00:46;102666.97;;;-1.90;100.00
83733;BME280;73710;49.968;8.338;2024-01-27T07:03:11;102667.28;;;-1.81;100.00
83733;BME280;73710;49.968;8.338;2024-01-27T07:05:37;102662.97;;;-1.81;100.00
83733;BME280;73710;49.968;8.338;2024-01-27T07:08:09;102666.44;;;-1.80;100.00
83733;BME280;73710;49.968;8.338;2024-01-27T07:10:35;102670.06;;;-1.75;100.00
83733;BME280;73710;49.968;8.338;2024-01-27T07:13:01;102670.59;;;-1.85;100.00
83733;BME280;73710;49.968;8.338;2024-01-27T07:15:26;102675.75;;;-1.85;100.00
83733;BME280;73710;49.968;8.338;2024-01-27T07:17:52;102671.50;;;-1.83;100.00
83733;BME280;73710;49.968;8.338;2024-01-27T07:20:18;102675.19;;;-1.77;100.00
83733;BME280;73710;49.968;8.338;2024-01-27T07:22:45;102673.53;;;-1.75;100.00
83733;BME280;73710;49.968;8.338;2024-01-27T07:25:10;102669.22;;;-1.74;100.00
83733;BME280;73710;49.968;8.338;2024-01-27T07:27:36;102664.94;;;-1.74;100.00
83733;BME280;73710;49.968;8.338;2024-01-27T07:30:02;102682.28;;;-1.70;100.00
83733;BME280;73710;49.968;8.338;2024-01-27T07:32:28;102683.56;;;-1.57;100.00
83733;BME280;73710;49.968;8.338;2024-01-27T07:34:53;102680.66;;;-1.39;100.00
83733;BME280;73710;49.968;8.338;2024-01-27T07:37:19;102692.84;;;-1.35;100.00
83733;BME280;73710;49.968;8.338;2024-01-27T07:39:46;102686.94;;;-1.31;100.00
83733;BME280;73710;49.968;8.338;2024-01-27T07:42:11;102690.78;;;-1.19;100.00
83733;BME280;73710;49.968;8.338;2024-01-27T07:44:36;102694.47;;;-1.11;100.00
83733;BME280;73710;49.968;8.338;2024-01-27T07:47:02;102692.38;;;-0.96;100.00
83733;BME280;73710;49.968;8.338;2024-01-27T07:49:27;102706.31;;;-0.91;100.00
83733;BME280;73710;49.968;8.338;2024-01-27T07:51:53;102703.19;;;-0.80;100.00
83733;BME280;73710;49.968;8.338;2024-01-27T07:54:19;102700.84;;;-0.71;100.00
83733;BME280;73710;49.968;8.338;2024-01-27T07:56:44;102707.97;;;-0.64;100.00
83733;BME280;73710;49.968;8.338;2024-01-27T07:59:09;102713.59;;;-0.49;100.00
83733;BME280;73710;49.968;8.338;2024-01-27T08:01:40;102699.19;;;-0.40;100.00
83733;BME280;73710;49.968;8.338;2024-01-27T08:04:05;102696.22;;;-0.22;100.00
83733;BME280;73710;49.968;8.338;2024-01-27T08:06:30;102696.50;;;-0.13;100.00
83733;BME280;73710;49.968;8.338;2024-01-27T08:08:56;102689.88;;;-0.02;100.00
83733;BME280;73710;49.968;8.338;2024-01-27T08:11:21;102688.13;;;0.30;100.00
83733;BME280;73710;49.968;8.338;2024-01-27T08:13:47;102687.38;;;0.35;100.00
83733;BME280;73710;49.968;8.338;2024-01-27T08:16:12;102689.44;;;0.48;100.00
83733;BME280;73710;49.968;8.338;2024-01-27T08:18:39;102689.88;;;0.66;100.00
83733;BME280;73710;49.968;8.338;2024-01-27T08:21:07;102694.63;;;0.84;100.00
83733;BME280;73710;49.968;8.338;2024-01-27T08:23:33;102692.38;;;1.01;100.00
83733;BME280;73710;49.968;8.338;2024-01-27T08:25:58;102691.00;;;1.15;100.00
83733;BME280;73710;49.968;8.338;2024-01-27T08:28:24;102687.00;;;1.30;100.00
83733;BME280;73710;49.968;8.338;2024-01-27T08:30:49;102700.31;;;1.47;100.00
83733;BME280;73710;49.968;8.338;2024-01-27T08:33:15;102701.59;;;1.68;100.00
83733;BME280;73710;49.968;8.338;2024-01-27T08:35:40;102717.47;;;1.82;100.00
83733;BME280;73710;49.968;8.338;2024-01-27T08:38:06;102723.78;;;1.96;100.00
83733;BME280;73710;49.968;8.338;2024-01-27T08:40:32;102726.53;;;2.05;100.00
83733;BME280;73710;49.968;8.338;2024-01-27T08:42:57;102707.63;;;2.11;100.00
83733;BME280;73710;49.968;8.338;2024-01-27T08:45:23;102712.94;;;2.18;100.00
83733;BME280;73710;49.968;8.338;2024-01-27T08:47:48;102707.13;;;2.31;100.00
83733;BME280;73710;49.968;8.338;2024-01-27T08:50:14;102717.72;;;2.43;100.00
83733;BME280;73710;49.968;8.338;2024-01-27T08:52:39;102726.25;;;2.36;100.00
83733;BME280;73710;49.968;8.338;2024-01-27T08:55:05;102735.91;;;2.43;100.00
83733;BME280;73710;49.968;8.338;2024-01-27T08:57:33;102732.53;;;2.49;100.00
83733;BME280;73710;49.968;8.338;2024-01-27T08:59:59;102731.88;;;2.61;100.00
83733;BME280;73710;49.968;8.338;2024-01-27T09:02:24;102736.41;;;2.74;100.00
83733;BME280;73710;49.968;8.338;2024-01-27T09:04:49;102745.28;;;2.88;100.00
83733;BME280;73710;49.968;8.338;2024-01-27T09:07:15;102745.44;;;2.98;100.00
83733;BME280;73710;49.968;8.338;2024-01-27T09:09:41;102757.00;;;3.15;99.91
83733;BME280;73710;49.968;8.338;2024-01-27T09:12:06;102755.34;;;3.22;98.23
83733;BME280;73710;49.968;8.338;2024-01-27T09:14:32;102765.84;;;3.28;96.78
83733;BME280;73710;49.968;8.338;2024-01-27T09:17:01;102768.47;;;3.31;96.98
83733;BME280;73710;49.968;8.338;2024-01-27T09:19:28;102771.16;;;3.37;96.41
83733;BME280;73710;49.968;8.338;2024-01-27T09:21:53;102760.84;;;3.43;95.84
83733;BME280;73710;49.968;8.338;2024-01-27T09:24:19;102766.25;;;3.57;95.73
83733;BME280;73710;49.968;8.338;2024-01-27T09:26:44;102773.31;;;3.67;94.75
83733;BME280;73710;49.968;8.338;2024-01-27T09:29:09;102769.94;;;3.75;94.24
83733;BME280;73710;49.968;8.338;2024-01-27T09:31:35;102780.59;;;3.93;92.64
83733;BME280;73710;49.968;8.338;2024-01-27T09:34:00;102779.81;;;4.02;91.29
83733;BME280;73710;49.968;8.338;2024-01-27T09:36:26;102773.84;;;4.12;91.38
83733;BME280;73710;49.968;8.338;2024-01-27T09:38:51;102772.28;;;4.26;89.68
83733;BME280;73710;49.968;8.338;2024-01-27T09:41:17;102773.81;;;4.09;87.54
83733;BME280;73710;49.968;8.338;2024-01-27T09:43:44;102777.22;;;4.03;88.87
83733;BME280;73710;49.968;8.338;2024-01-27T09:46:11;102782.44;;;4.06;89.62
83733;BME280;73710;49.968;8.338;2024-01-27T09:48:37;102780.84;;;4.14;88.46
83733;BME280;73710;49.968;8.338;2024-01-27T09:51:04;102780.97;;;4.30;87.59
83733;BME280;73710;49.968;8.338;2024-01-27T09:53:30;102782.88;;;4.44;86.72
83733;BME280;73710;49.968;8.338;2024-01-27T09:55:58;102787.91;;;4.29;85.94
83733;BME280;73710;49.968;8.338;2024-01-27T09:58:25;102780.84;;;4.18;87.21
83733;BME280;73710;49.968;8.338;2024-01-27T10:00:54;102777.53;;;4.34;87.52
83733;BME280;73710;49.968;8.338;2024-01-27T10:03:23;102776.88;;;4.51;87.75
83733;BME280;73710;49.968;8.338;2024-01-27T10:05:51;102774.38;;;4.65;85.38
83733;BME280;73710;49.968;8.338;2024-01-27T10:08:23;102762.22;;;4.68;84.72
83733;BME280;73710;49.968;8.338;2024-01-27T10:10:54;102761.41;;;4.69;84.94
83733;BME280;73710;49.968;8.338;2024-01-27T10:13:20;102757.91;;;4.67;85.13
83733;BME280;73710;49.968;8.338;2024-01-27T10:16:04;102744.81;;;4.63;85.60
83733;BME280;73710;49.968;8.338;2024-01-27T10:18:30;102751.00;;;4.75;84.96
83733;BME280;73710;49.968;8.338;2024-01-27T10:20:56;102745.94;;;4.90;83.58
83733;BME280;73710;49.968;8.338;2024-01-27T10:23:22;102755.53;;;4.99;84.41
83733;BME280;73710;49.968;8.338;2024-01-27T10:25:47;102760.84;;;5.14;83.84
83733;BME280;73710;49.968;8.338;2024-01-27T10:28:14;102749.63;;;5.23;82.27
83733;BME280;73710;49.968;8.338;2024-01-27T10:30:43;102749.66;;;5.30;82.19
83733;BME280;73710;49.968;8.338;2024-01-27T10:33:09;102747.06;;;5.33;81.20
83733;BME280;73710;49.968;8.338;2024-01-27T10:35:42;102747.13;;;5.45;80.86
83733;BME280;73710;49.968;8.338;2024-01-27T10:38:08;102741.06;;;5.51;80.11
83733;BME280;73710;49.968;8.338;2024-01-27T10:40:35;102726.25;;;5.45;81.30
83733;BME280;73710;49.968;8.338;2024-01-27T10:43:07;102740.22;;;5.53;81.95
83733;BME280;73710;49.968;8.338;2024-01-27T10:45:40;102740.19;;;5.47;82.89
83733;BME280;73710;49.968;8.338;2024-01-27T10:48:08;102735.78;;;5.37;82.52
83733;BME280;73710;49.968;8.338;2024-01-27T10:50:37;102727.88;;;5.22;83.05
83733;BME280;73710;49.968;8.338;2024-01-27T10:53:04;102726.19;;;5.36;82.83
83733;BME280;73710;49.968;8.338;2024-01-27T10:55:33;102718.41;;;5.41;81.63
83733;BME280;73710;49.968;8.338;2024-01-27T10:57:59;102709.78;;;5.54;82.87
83733;BME280;73710;49.968;8.338;2024-01-27T11:00:28;102713.31;;;5.72;82.17
83733;BME280;73710;49.968;8.338;2024-01-27T11:02:58;102715.06;;;5.79;80.42
83733;BME280;73710;49.968;8.338;2024-01-27T11:05:24;102717.78;;;5.99;79.42
83733;BME280;73710;49.968;8.338;2024-01-27T11:07:49;102716.94;;;6.12;77.83
83733;BME280;73710;49.968;8.338;2024-01-27T11:10:17;102713.47;;;6.07;77.77
83733;BME280;73710;49.968;8.338;2024-01-27T11:12:43;102723.88;;;5.98;79.36
83733;BME280;73710;49.968;8.338;2024-01-27T11:15:09;102724.75;;;6.02;79.56
83733;BME280;73710;49.968;8.338;2024-01-27T11:17:40;102723.91;;;6.10;79.21
83733;BME280;73710;49.968;8.338;2024-01-27T11:20:11;102716.09;;;6.24;77.89
83733;BME280;73710;49.968;8.338;2024-01-27T11:22:37;102715.22;;;6.37;76.83
83733;BME280;73710;49.968;8.338;2024-01-27T11:27:36;102717.78;;;6.10;78.25
83733;BME280;73710;49.968;8.338;2024-01-27T11:30:03;102714.31;;;6.11;77.79
83733;BME280;73710;49.968;8.338;2024-01-27T11:32:30;102710.88;;;6.25;77.77
83733;BME280;73710;49.968;8.338;2024-01-27T11:34:55;102702.13;;;6.13;77.42
83733;BME280;73710;49.968;8.338;2024-01-27T11:37:20;102706.50;;;6.17;77.57
83733;BME280;73710;49.968;8.338;2024-01-27T11:39:50;102709.13;;;6.20;78.39
83733;BME280;73710;49.968;8.338;2024-01-27T11:42:16;102711.75;;;6.32;77.08
83733;BME280;73710;49.968;8.338;2024-01-27T11:44:43;102712.63;;;6.29;78.27
83733;BME280;73710;49.968;8.338;2024-01-27T11:47:17;102707.34;;;6.10;78.27
83733;BME280;73710;49.968;8.338;2024-01-27T11:49:50;102714.34;;;6.17;80.68
83733;BME280;73710;49.968;8.338;2024-01-27T11:52:17;102717.84;;;6.40;80.19
83733;BME280;73710;49.968;8.338;2024-01-27T11:54:43;102718.72;;;6.51;78.26
83733;BME280;73710;49.968;8.338;2024-01-27T11:57:09;102709.13;;;6.56;78.55
83733;BME280;73710;49.968;8.338;2024-01-27T11:59:34;102707.41;;;6.58;77.95
83733;BME280;73710;49.968;8.338;2024-01-27T12:02:01;102702.16;;;6.46;77.54
83733;BME280;73710;49.968;8.338;2024-01-27T12:04:27;102695.19;;;6.39;78.52
83733;BME280;73710;49.968;8.338;2024-01-27T12:06:53;102698.66;;;6.53;78.00
83733;BME280;73710;49.968;8.338;2024-01-27T12:09:18;102706.53;;;6.67;77.70
83733;BME280;73710;49.968;8.338;2024-01-27T12:11:44;102722.22;;;6.83;76.48
83733;BME280;73710;49.968;8.338;2024-01-27T12:14:11;102710.88;;;6.87;76.09
83733;BME280;73710;49.968;8.338;2024-01-27T12:16:37;102704.72;;;7.00;75.00
83733;BME280;73710;49.968;8.338;2024-01-27T12:19:03;102703.00;;;6.96;75.42
83733;BME280;73710;49.968;8.338;2024-01-27T12:21:28;102703.91;;;6.89;74.63
83733;BME280;73710;49.968;8.338;2024-01-27T12:23:57;102706.53;;;6.83;75.06
83733;BME280;73710;49.968;8.338;2024-01-27T12:26:28;102721.34;;;6.87;75.05
83733;BME280;73710;49.968;8.338;2024-01-27T12:28:54;102715.22;;;7.02;73.86
83733;BME280;73710;49.968;8.338;2024-01-27T12:31:22;102716.06;;;7.16;74.45
83733;BME280;73710;49.968;8.338;2024-01-27T12:33:49;102713.34;;;7.43;72.80
83733;BME280;73710;49.968;8.338;2024-01-27T12:36:17;102712.41;;;7.59;71.81
83733;BME280;73710;49.968;8.338;2024-01-27T12:38:42;102711.47;;;7.80;70.85
83733;BME280;73710;49.968;8.338;2024-01-27T12:41:07;102709.66;;;7.86;70.84
83733;BME280;73710;49.968;8.338;2024-01-27T12:43:33;102706.19;;;7.81;71.16
83733;BME280;73710;49.968;8.338;2024-01-27T12:45:58;102690.53;;;7.71;71.93
83733;BME280;73710;49.968;8.338;2024-01-27T12:48:23;102693.25;;;7.43;71.96
83733;BME280;73710;49.968;8.338;2024-01-27T12:50:54;102682.88;;;7.28;73.89
83733;BME280;73710;49.968;8.338;2024-01-27T12:53:21;102681.09;;;7.36;74.86
83733;BME280;73710;49.968;8.338;2024-01-27T12:55:47;102682.81;;;7.39;75.13
83733;BME280;73710;49.968;8.338;2024-01-27T12:58:12;102682.81;;;7.39;73.26
83733;BME280;73710;49.968;8.338;2024-01-27T13:00:37;102682.84;;;7.25;72.07
83733;BME280;73710;49.968;8.338;2024-01-27T13:03:03;102674.19;;;7.11;72.99
83733;BME280;73710;49.968;8.338;2024-01-27T13:05:29;102675.91;;;7.12;73.59
83733;BME280;73710;49.968;8.338;2024-01-27T13:07:54;102670.69;;;7.12;73.48
83733;BME280;73710;49.968;8.338;2024-01-27T13:10:20;102667.19;;;7.13;72.67
83733;BME280;73710;49.968;8.338;2024-01-27T13:12:45;102671.56;;;7.13;73.69
83733;BME280;73710;49.968;8.338;2024-01-27T13:15:10;102669.81;;;7.18;73.25
83733;BME280;73710;49.968;8.338;2024-01-27T13:17:36;102670.66;;;7.24;72.84
83733;BME280;73710;49.968;8.338;2024-01-27T13:20:01;102661.94;;;7.28;72.60
83733;BME280;73710;49.968;8.338;2024-01-27T13:22:26;102662.78;;;7.30;72.02
83733;BME280;73710;49.968;8.338;2024-01-27T13:24:52;102662.75;;;7.36;72.17
83733;BME280;73710;49.968;8.338;2024-01-27T13:27:17;102662.72;;;7.39;72.52
83733;BME280;73710;49.968;8.338;2024-01-27T13:29:43;102641.78;;;7.41;72.69
83733;BME280;73710;49.968;8.338;2024-01-27T13:32:10;102653.06;;;7.54;70.39
83733;BME280;73710;49.968;8.338;2024-01-27T13:34:35;102639.16;;;7.47;71.96
83733;BME280;73710;49.968;8.338;2024-01-27T13:37:01;102636.53;;;7.44;72.06
83733;BME280;73710;49.968;8.338;2024-01-27T13:39:28;102629.56;;;7.44;72.14
83733;BME280;73710;49.968;8.338;2024-01-27T13:41:53;102626.94;;;7.41;71.87
83733;BME280;73710;49.968;8.338;2024-01-27T13:44:19;102622.56;;;7.43;71.75
83733;BME280;73710;49.968;8.338;2024-01-27T13:46:44;102626.88;;;7.57;71.11
83733;BME280;73710;49.968;8.338;2024-01-27T13:49:09;102625.13;;;7.57;70.70
83733;BME280;73710;49.968;8.338;2024-01-27T13:51:35;102619.91;;;7.50;71.35
83733;BME280;73710;49.968;8.338;2024-01-27T13:54:00;102623.41;;;7.55;71.54
83733;BME280;73710;49.968;8.338;2024-01-27T13:56:25;102622.56;;;7.51;71.82
83733;BME280;73710;49.968;8.338;2024-01-27T13:58:52;102624.31;;;7.46;71.67
83733;BME280;73710;49.968;8.338;2024-01-27T14:01:18;102620.81;;;7.44;72.06
83733;BME280;73710;49.968;8.338;2024-01-27T14:03:44;102620.81;;;7.45;72.19
83733;BME280;73710;49.968;8.338;2024-01-27T14:06:09;102616.44;;;7.47;70.80
83733;BME280;73710;49.968;8.338;2024-01-27T14:08:38;102614.72;;;7.42;71.18
83733;BME280;73710;49.968;8.338;2024-01-27T14:11:04;102618.19;;;7.49;71.71
83733;BME280;73710;49.968;8.338;2024-01-27T14:13:29;102619.91;;;7.57;71.14
83733;BME280;73710;49.968;8.338;2024-01-27T14:15:55;102616.41;;;7.55;70.50
83733;BME280;73710;49.968;8.338;2024-01-27T14:18:20;102619.03;;;7.54;70.14
83733;BME280;73710;49.968;8.338;2024-01-27T14:20:47;102619.91;;;7.57;69.90
83733;BME280;73710;49.968;8.338;2024-01-27T14:23:14;102608.50;;;7.67;69.08
83733;BME280;73710;49.968;8.338;2024-01-27T14:25:39;102607.53;;;7.79;68.74
83733;BME280;73710;49.968;8.338;2024-01-27T14:28:05;102613.56;;;7.88;68.64
83733;BME280;73710;49.968;8.338;2024-01-27T14:30:33;102622.31;;;7.87;68.67
83733;BME280;73710;49.968;8.338;2024-01-27T14:32:58;102610.97;;;7.87;69.05
83733;BME280;73710;49.968;8.338;2024-01-27T14:35:23;102610.09;;;7.88;68.65
83733;BME280;73710;49.968;8.338;2024-01-27T14:37:51;102607.44;;;7.94;68.38
83733;BME280;73710;49.968;8.338;2024-01-27T14:40:17;102603.03;;;7.97;67.13
83733;BME280;73710;49.968;8.338;2024-01-27T14:42:44;102597.63;;;8.17;66.90
83733;BME280;73710;49.968;8.338;2024-01-27T14:45:11;102602.50;;;8.61;65.64
83733;BME280;73710;49.968;8.338;2024-01-27T14:47:37;102598.63;;;8.96;63.40
83733;BME280;73710;49.968;8.338;2024-01-27T14:50:03;102596.88;;;9.61;60.68
83733;BME280;73710;49.968;8.338;2024-01-27T14:52:29;102590.06;;;10.57;56.87
83733;BME280;73710;49.968;8.338;2024-01-27T14:54:54;102594.88;;;11.24;54.38
83733;BME280;73710;49.968;8.338;2024-01-27T14:57:19;102592.94;;;11.74;52.62
83733;BME280;73710;49.968;8.338;2024-01-27T14:59:45;102597.94;;;12.85;49.64
83733;BME280;73710;49.968;8.338;2024-01-27T15:02:10;102597.28;;;13.68;47.36
83733;BME280;73710;49.968;8.338;2024-01-27T15:04:36;102604.59;;;14.41;45.35
83733;BME280;73710;49.968;8.338;2024-01-27T15:07:01;102600.03;;;14.96;44.06
83733;BME280;73710;49.968;8.338;2024-01-27T15:09:27;102592.94;;;14.96;43.56
83733;BME280;73710;49.968;8.338;2024-01-27T15:11:52;102591.19;;;15.65;41.64
83733;BME280;73710;49.968;8.338;2024-01-27T15:14:18;102591.81;;;15.49;41.29
83733;BME280;73710;49.968;8.338;2024-01-27T15:16:45;102598.13;;;15.22;41.34
83733;BME280;73710;49.968;8.338;2024-01-27T15:19:10;102600.19;;;15.61;40.33
83733;BME280;73710;49.968;8.338;2024-01-27T15:21:36;102602.38;;;15.03;41.72
83733;BME280;73710;49.968;8.338;2024-01-27T15:24:01;102605.19;;;14.74;42.04
83733;BME280;73710;49.968;8.338;2024-01-27T15:26:27;102602.31;;;14.82;42.14
83733;BME280;73710;49.968;8.338;2024-01-27T15:28:52;102613.00;;;14.54;42.74
83733;BME280;73710;49.968;8.338;2024-01-27T15:31:17;102606.75;;;14.03;43.52
83733;BME280;73710;49.968;8.338;2024-01-27T15:33:43;102608.38;;;13.22;44.89
83733;BME280;73710;49.968;8.338;2024-01-27T15:36:08;102615.09;;;12.37;47.22
83733;BME280;73710;49.968;8.338;2024-01-27T15:38:34;102603.88;;;11.14;49.99
83733;BME280;73710;49.968;8.338;2024-01-27T15:40:59;102605.34;;;9.82;53.58
83733;BME280;73710;49.968;8.338;2024-01-27T15:43:25;102606.44;;;8.99;56.08
83733;BME280;73710;49.968;8.338;2024-01-27T15:45:50;102594.09;;;8.21;58.89
83733;BME280;73710;49.968;8.338;2024-01-27T15:48:19;102593.69;;;7.59;61.84
83733;BME280;73710;49.968;8.338;2024-01-27T15:50:44;102593.06;;;7.10;64.50
83733;BME280;73710;49.968;8.338;2024-01-27T15:53:10;102587.97;;;6.71;66.57
83733;BME280;73710;49.968;8.338;2024-01-27T15:55:35;102595.88;;;6.30;68.27
83733;BME280;73710;49.968;8.338;2024-01-27T15:58:00;102597.63;;;5.93;70.11
83733;BME280;73710;49.968;8.338;2024-01-27T16:00:26;102601.88;;;5.59;72.80
83733;BME280;73710;49.968;8.338;2024-01-27T16:02:53;102595.69;;;5.29;75.22
83733;BME280;73710;49.968;8.338;2024-01-27T16:05:18;102599.06;;;4.96;77.16
83733;BME280;73710;49.968;8.338;2024-01-27T16:07:44;102595.41;;;4.67;79.62
83733;BME280;73710;49.968;8.338;2024-01-27T16:10:10;102590.06;;;4.43;82.27
83733;BME280;73710;49.968;8.338;2024-01-27T16:12:35;102598.53;;;4.14;83.96
83733;BME280;73710;49.968;8.338;2024-01-27T16:15:01;102596.56;;;3.92;86.05
83733;BME280;73710;49.968;8.338;2024-01-27T16:17:26;102590.38;;;3.75;87.59
83733;BME280;73710;49.968;8.338;2024-01-27T16:19:51;102597.13;;;3.58;89.94
83733;BME280;73710;49.968;8.338;2024-01-27T16:22:18;102589.16;;;3.43;91.81
83733;BME280;73710;49.968;8.338;2024-01-27T16:24:49;102595.03;;;3.28;93.30
83733;BME280;73710;49.968;8.338;2024-01-27T16:27:14;102596.59;;;3.13;95.14
83733;BME280;73710;49.968;8.338;2024-01-27T16:29:39;102604.34;;;3.07;96.84
83733;BME280;73710;49.968;8.338;2024-01-27T16:32:05;102603.34;;;2.97;98.15
83733;BME280;73710;49.968;8.338;2024-01-27T16:34:31;102600.56;;;2.84;98.72
83733;BME280;73710;49.968;8.338;2024-01-27T16:36:56;102594.31;;;2.71;100.00
83733;BME280;73710;49.968;8.338;2024-01-27T16:39:22;102601.19;;;2.68;100.00
83733;BME280;73710;49.968;8.338;2024-01-27T16:41:47;102595.91;;;2.59;100.00
83733;BME280;73710;49.968;8.338;2024-01-27T16:44:12;102593.06;;;2.45;100.00
83733;BME280;73710;49.968;8.338;2024-01-27T16:46:39;102597.22;;;2.32;100.00
83733;BME280;73710;49.968;8.338;2024-01-27T16:49:04;102597.94;;;2.24;100.00
83733;BME280;73710;49.968;8.338;2024-01-27T16:51:30;102594.41;;;2.17;100.00
83733;BME280;73710;49.968;8.338;2024-01-27T16:53:55;102595.13;;;2.09;100.00
83733;BME280;73710;49.968;8.338;2024-01-27T16:56:20;102588.22;;;2.09;100.00
83733;BME280;73710;49.968;8.338;2024-01-27T16:58:46;102591.66;;;2.10;100.00
83733;BME280;73710;49.968;8.338;2024-01-27T17:01:15;102589.84;;;2.04;100.00
83733;BME280;73710;49.968;8.338;2024-01-27T17:03:40;102588.78;;;1.93;100.00
83733;BME280;73710;49.968;8.338;2024-01-27T17:06:06;102589.56;;;1.88;100.00
83733;BME280;73710;49.968;8.338;2024-01-27T17:08:35;102588.47;;;1.77;100.00
83733;BME280;73710;49.968;8.338;2024-01-27T17:11:00;102591.94;;;1.76;100.00
83733;BME280;73710;49.968;8.338;2024-01-27T17:13:25;102595.31;;;1.72;100.00
83733;BME280;73710;49.968;8.338;2024-01-27T17:15:51;102593.47;;;1.64;100.00
83733;BME280;73710;49.968;8.338;2024-01-27T17:18:18;102579.47;;;1.55;100.00
83733;BME280;73710;49.968;8.338;2024-01-27T17:20:44;102581.88;;;1.46;100.00
83733;BME280;73710;49.968;8.338;2024-01-27T17:23:09;102579.94;;;1.34;100.00
83733;BME280;73710;49.968;8.338;2024-01-27T17:25:34;102584.19;;;1.31;100.00
83733;BME280;73710;49.968;8.338;2024-01-27T17:28:00;102588.59;;;1.35;100.00
83733;BME280;73710;49.968;8.338;2024-01-27T17:30:25;102593.78;;;1.36;100.00
83733;BME280;73710;49.968;8.338;2024-01-27T17:32:50;102591.13;;;1.32;100.00
83733;BME280;73710;49.968;8.338;2024-01-27T17:35:16;102590.31;;;1.36;100.00
83733;BME280;73710;49.968;8.338;2024-01-27T17:37:41;102602.34;;;1.31;100.00
83733;BME280;73710;49.968;8.338;2024-01-27T17:40:07;102594.44;;;1.25;100.00
83733;BME280;73710;49.968;8.338;2024-01-27T17:42:34;102593.25;;;1.09;100.00
83733;BME280;73710;49.968;8.338;2024-01-27T17:45:00;102597.25;;;0.94;100.00
83733;BME280;73710;49.968;8.338;2024-01-27T17:47:28;102600.66;;;0.91;100.00
83733;BME280;73710;49.968;8.338;2024-01-27T17:49:53;102603.34;;;0.96;100.00
83733;BME280;73710;49.968;8.338;2024-01-27T17:52:19;102605.97;;;0.99;100.00
83733;BME280;73710;49.968;8.338;2024-01-27T17:54:44;102599.94;;;0.98;100.00